sensor_id;sensor_type;location;lat;lon;timestamp;P1;durP1;ratioP1;P2;durP2;ratioP2
59938;SDS011;45801;51.810;19.444;2024-01-30T00:01:59;23.80;;;14.50;;
59938;SDS011;45801;51.810;19.444;2024-01-30T00:04:28;21.20;;;11.80;;
59938;SDS011;45801;51.810;19.444;2024-01-30T00:06:55;22.10;;;12.60;;
59938;SDS011;45801;51.810;19.444;2024-01-30T00:09:30;23.70;;;12.60;;
59938;SDS011;45801;51.810;19.444;2024-01-30T00:11:57;21.80;;;12.10;;
59938;SDS011;45801;51.810;19.444;2024-01-30T00:14:24;25.20;;;13.30;;
59938;SDS011;45801;51.810;19.444;2024-01-30T00:16:50;22.60;;;11.80;;
59938;SDS011;45801;51.810;19.444;2024-01-30T00:19:17;22.40;;;13.20;;
59938;SDS011;45801;51.810;19.444;2024-01-30T00:21:44;23.50;;;12.50;;
59938;SDS011;45801;51.810;19.444;2024-01-30T00:24:10;21.80;;;12.40;;
59938;SDS011;45801;51.810;19.444;2024-01-30T00:26:37;20.60;;;11.10;;
59938;SDS011;45801;51.810;19.444;2024-01-30T00:29:04;19.60;;;11.20;;
59938;SDS011;45801;51.810;19.444;2024-01-30T00:31:31;24.00;;;12.40;;
59938;SDS011;45801;51.810;19.444;2024-01-30T00:33:57;21.80;;;12.90;;
59938;SDS011;45801;51.810;19.444;2024-01-30T00:36:24;21.50;;;12.30;;
59938;SDS011;45801;51.810;19.444;2024-01-30T00:38:51;19.10;;;9.90;;
59938;SDS011;45801;51.810;19.444;2024-01-30T00:41:17;22.60;;;11.40;;
59938;SDS011;45801;51.810;19.444;2024-01-30T00:43:45;21.10;;;11.40;;
59938;SDS011;45801;51.810;19.444;2024-01-30T00:46:12;20.30;;;10.60;;
59938;SDS011;45801;51.810;19.444;2024-01-30T00:48:38;23.00;;;11.50;;
59938;SDS011;45801;51.810;19.444;2024-01-30T00:51:05;20.20;;;11.50;;
59938;SDS011;45801;51.810;19.444;2024-01-30T00:53:31;21.00;;;11.70;;
59938;SDS011;45801;51.810;19.444;2024-01-30T00:55:58;22.10;;;11.70;;
59938;SDS011;45801;51.810;19.444;2024-01-30T00:58:25;18.00;;;11.10;;
59938;SDS011;45801;51.810;19.444;2024-01-30T01:00:51;20.00;;;10.60;;
59938;SDS011;45801;51.810;19.444;2024-01-30T01:03:18;22.00;;;10.90;;
59938;SDS011;45801;51.810;19.444;2024-01-30T01:05:44;20.40;;;10.90;;
59938;SDS011;45801;51.810;19.444;2024-01-30T01:08:11;18.40;;;10.00;;
59938;SDS011;45801;51.810;19.444;2024-01-30T01:10:38;20.80;;;11.10;;
59938;SDS011;45801;51.810;19.444;2024-01-30T01:13:04;21.50;;;10.80;;
59938;SDS011;45801;51.810;19.444;2024-01-30T01:15:31;21.10;;;11.30;;
59938;SDS011;45801;51.810;19.444;2024-01-30T01:17:57;17.80;;;9.00;;
59938;SDS011;45801;51.810;19.444;2024-01-30T01:20:24;20.00;;;10.00;;
59938;SDS011;45801;51.810;19.444;2024-01-30T01:22:51;17.70;;;10.60;;
59938;SDS011;45801;51.810;19.444;2024-01-30T01:25:19;20.40;;;10.20;;
59938;SDS011;45801;51.810;19.444;2024-01-30T01:27:45;18.60;;;10.10;;
59938;SDS011;45801;51.810;19.444;2024-01-30T01:30:18;19.10;;;9.80;;
59938;SDS011;45801;51.810;19.444;2024-01-30T01:32:52;20.40;;;11.60;;
59938;SDS011;45801;51.810;19.444;2024-01-30T01:35:21;18.30;;;10.50;;
59938;SDS011;45801;51.810;19.444;2024-01-30T01:37:51;20.30;;;9.90;;
59938;SDS011;45801;51.810;19.444;2024-01-30T01:40:24;22.60;;;11.70;;
59938;SDS011;45801;51.810;19.444;2024-01-30T01:42:52;19.00;;;10.50;;
59938;SDS011;45801;51.810;19.444;2024-01-30T01:45:20;18.00;;;10.00;;
59938;SDS011;45801;51.810;19.444;2024-01-30T01:47:48;19.40;;;10.20;;
59938;SDS011;45801;51.810;19.444;2024-01-30T01:50:18;19.00;;;10.00;;
59938;SDS011;45801;51.810;19.444;2024-01-30T01:52:50;18.40;;;10.90;;
59938;SDS011;45801;51.810;19.444;2024-01-30T01:55:18;17.10;;;9.20;;
59938;SDS011;45801;51.810;19.444;2024-01-30T01:57:48;18.80;;;9.10;;
59938;SDS011;45801;51.810;19.444;2024-01-30T02:00:14;19.10;;;10.50;;
59938;SDS011;45801;51.810;19.444;2024-01-30T02:02:42;17.30;;;9.60;;
59938;SDS011;45801;51.810;19.444;2024-01-30T02:05:12;19.40;;;10.50;;
59938;SDS011;45801;51.810;19.444;2024-01-30T02:07:40;16.90;;;8.50;;
59938;SDS011;45801;51.810;19.444;2024-01-30T02:10:07;19.70;;;10.30;;
59938;SDS011;45801;51.810;19.444;2024-01-30T02:12:35;16.80;;;8.80;;
59938;SDS011;45801;51.810;19.444;2024-01-30T02:15:02;19.20;;;9.40;;
59938;SDS011;45801;51.810;19.444;2024-01-30T02:17:31;16.00;;;9.20;;
59938;SDS011;45801;51.810;19.444;2024-01-30T02:19:57;19.70;;;9.30;;
59938;SDS011;45801;51.810;19.444;2024-01-30T02:22:24;18.90;;;8.80;;
59938;SDS011;45801;51.810;19.444;2024-01-30T02:24:51;16.80;;;9.10;;
59938;SDS011;45801;51.810;19.444;2024-01-30T02:27:17;16.30;;;9.50;;
59938;SDS011;45801;51.810;19.444;2024-01-30T02:29:44;16.80;;;9.20;;
59938;SDS011;45801;51.810;19.444;2024-01-30T02:32:11;16.40;;;8.60;;
59938;SDS011;45801;51.810;19.444;2024-01-30T02:34:38;14.80;;;7.90;;
59938;SDS011;45801;51.810;19.444;2024-01-30T02:37:04;16.50;;;8.80;;
59938;SDS011;45801;51.810;19.444;2024-01-30T02:39:31;15.00;;;8.10;;
59938;SDS011;45801;51.810;19.444;2024-01-30T02:41:58;15.70;;;8.20;;
59938;SDS011;45801;51.810;19.444;2024-01-30T02:44:24;16.00;;;8.20;;
59938;SDS011;45801;51.810;19.444;2024-01-30T02:46:51;16.30;;;8.30;;
59938;SDS011;45801;51.810;19.444;2024-01-30T02:49:19;16.20;;;8.40;;
59938;SDS011;45801;51.810;19.444;2024-01-30T02:51:45;15.20;;;7.70;;
59938;SDS011;45801;51.810;19.444;2024-01-30T02:54:12;17.50;;;8.30;;
59938;SDS011;45801;51.810;19.444;2024-01-30T02:56:38;15.80;;;8.10;;
59938;SDS011;45801;51.810;19.444;2024-01-30T02:59:05;15.50;;;8.10;;
59938;SDS011;45801;51.810;19.444;2024-01-30T03:01:32;13.70;;;7.80;;
59938;SDS011;45801;51.810;19.444;2024-01-30T03:03:59;13.90;;;7.90;;
59938;SDS011;45801;51.810;19.444;2024-01-30T03:06:25;14.70;;;7.90;;
59938;SDS011;45801;51.810;19.444;2024-01-30T03:08:52;15.30;;;8.10;;
59938;SDS011;45801;51.810;19.444;2024-01-30T03:11:18;14.70;;;7.60;;
59938;SDS011;45801;51.810;19.444;2024-01-30T03:13:46;14.20;;;7.20;;
59938;SDS011;45801;51.810;19.444;2024-01-30T03:16:13;13.30;;;7.40;;
59938;SDS011;45801;51.810;19.444;2024-01-30T03:18:40;11.60;;;6.40;;
59938;SDS011;45801;51.810;19.444;2024-01-30T03:21:07;16.40;;;7.80;;
59938;SDS011;45801;51.810;19.444;2024-01-30T03:23:33;14.30;;;7.80;;
59938;SDS011;45801;51.810;19.444;2024-01-30T03:26:00;15.20;;;7.20;;
59938;SDS011;45801;51.810;19.444;2024-01-30T03:28:27;14.50;;;7.00;;
59938;SDS011;45801;51.810;19.444;2024-01-30T03:30:53;14.40;;;7.10;;
59938;SDS011;45801;51.810;19.444;2024-01-30T03:33:20;13.50;;;7.00;;
59938;SDS011;45801;51.810;19.444;2024-01-30T03:35:46;12.90;;;6.80;;
59938;SDS011;45801;51.810;19.444;2024-01-30T03:38:15;13.70;;;7.00;;
59938;SDS011;45801;51.810;19.444;2024-01-30T03:40:42;14.00;;;7.00;;
59938;SDS011;45801;51.810;19.444;2024-01-30T03:43:09;13.60;;;6.80;;
59938;SDS011;45801;51.810;19.444;2024-01-30T03:45:35;14.90;;;7.20;;
59938;SDS011;45801;51.810;19.444;2024-01-30T03:48:02;13.50;;;7.00;;
59938;SDS011;45801;51.810;19.444;2024-01-30T03:50:29;12.50;;;6.40;;
59938;SDS011;45801;51.810;19.444;2024-01-30T03:52:55;14.80;;;6.80;;
59938;SDS011;45801;51.810;19.444;2024-01-30T03:55:22;13.10;;;6.60;;
59938;SDS011;45801;51.810;19.444;2024-01-30T03:57:48;15.20;;;6.90;;
59938;SDS011;45801;51.810;19.444;2024-01-30T04:00:15;13.50;;;6.00;;
59938;SDS011;45801;51.810;19.444;2024-01-30T04:02:42;12.30;;;6.20;;
59938;SDS011;45801;51.810;19.444;2024-01-30T04:05:08;13.20;;;7.20;;
59938;SDS011;45801;51.810;19.444;2024-01-30T04:07:35;13.70;;;5.70;;
59938;SDS011;45801;51.810;19.444;2024-01-30T04:10:02;13.30;;;6.30;;
59938;SDS011;45801;51.810;19.444;2024-01-30T04:12:31;14.80;;;6.40;;
59938;SDS011;45801;51.810;19.444;2024-01-30T04:14:58;13.40;;;6.50;;
59938;SDS011;45801;51.810;19.444;2024-01-30T04:17:25;13.60;;;6.90;;
59938;SDS011;45801;51.810;19.444;2024-01-30T04:20:02;12.90;;;6.00;;
59938;SDS011;45801;51.810;19.444;2024-01-30T04:22:29;11.10;;;5.80;;
59938;SDS011;45801;51.810;19.444;2024-01-30T04:24:55;11.60;;;5.20;;
59938;SDS011;45801;51.810;19.444;2024-01-30T04:27:23;11.60;;;6.10;;
59938;SDS011;45801;51.810;19.444;2024-01-30T04:29:49;12.80;;;6.00;;
59938;SDS011;45801;51.810;19.444;2024-01-30T04:32:17;12.00;;;6.30;;
59938;SDS011;45801;51.810;19.444;2024-01-30T04:34:44;11.20;;;5.30;;
59938;SDS011;45801;51.810;19.444;2024-01-30T04:37:10;14.90;;;6.20;;
59938;SDS011;45801;51.810;19.444;2024-01-30T04:39:37;12.40;;;6.40;;
59938;SDS011;45801;51.810;19.444;2024-01-30T04:42:03;11.40;;;6.10;;
59938;SDS011;45801;51.810;19.444;2024-01-30T04:44:31;11.00;;;6.00;;
59938;SDS011;45801;51.810;19.444;2024-01-30T04:46:57;11.60;;;6.10;;
59938;SDS011;45801;51.810;19.444;2024-01-30T04:49:27;11.30;;;5.20;;
59938;SDS011;45801;51.810;19.444;2024-01-30T04:51:55;12.70;;;6.00;;
59938;SDS011;45801;51.810;19.444;2024-01-30T04:54:22;11.90;;;6.10;;
59938;SDS011;45801;51.810;19.444;2024-01-30T04:56:50;12.90;;;6.40;;
59938;SDS011;45801;51.810;19.444;2024-01-30T04:59:17;12.10;;;6.20;;
59938;SDS011;45801;51.810;19.444;2024-01-30T05:01:43;13.10;;;6.90;;
59938;SDS011;45801;51.810;19.444;2024-01-30T05:04:10;12.40;;;6.20;;
59938;SDS011;45801;51.810;19.444;2024-01-30T05:06:38;12.40;;;6.20;;
59938;SDS011;45801;51.810;19.444;2024-01-30T05:09:05;12.70;;;6.20;;
59938;SDS011;45801;51.810;19.444;2024-01-30T05:11:32;12.20;;;6.20;;
59938;SDS011;45801;51.810;19.444;2024-01-30T05:14:06;13.70;;;6.70;;
59938;SDS011;45801;51.810;19.444;2024-01-30T05:16:33;11.90;;;5.80;;
59938;SDS011;45801;51.810;19.444;2024-01-30T05:18:59;12.60;;;6.50;;
59938;SDS011;45801;51.810;19.444;2024-01-30T05:21:26;13.00;;;6.00;;
59938;SDS011;45801;51.810;19.444;2024-01-30T05:23:53;13.10;;;6.80;;
59938;SDS011;45801;51.810;19.444;2024-01-30T05:26:19;13.10;;;6.50;;
59938;SDS011;45801;51.810;19.444;2024-01-30T05:28:46;13.50;;;6.40;;
59938;SDS011;45801;51.810;19.444;2024-01-30T05:31:12;13.30;;;6.40;;
59938;SDS011;45801;51.810;19.444;2024-01-30T05:33:40;12.70;;;6.00;;
59938;SDS011;45801;51.810;19.444;2024-01-30T05:36:07;11.40;;;6.10;;
59938;SDS011;45801;51.810;19.444;2024-01-30T05:38:33;10.80;;;5.40;;
59938;SDS011;45801;51.810;19.444;2024-01-30T05:41:00;11.60;;;6.20;;
59938;SDS011;45801;51.810;19.444;2024-01-30T05:43:27;12.60;;;6.10;;
59938;SDS011;45801;51.810;19.444;2024-01-30T05:45:53;13.30;;;6.30;;
59938;SDS011;45801;51.810;19.444;2024-01-30T05:48:20;12.50;;;6.40;;
59938;SDS011;45801;51.810;19.444;2024-01-30T05:50:46;13.90;;;6.50;;
59938;SDS011;45801;51.810;19.444;2024-01-30T05:53:13;11.80;;;6.00;;
59938;SDS011;45801;51.810;19.444;2024-01-30T05:55:40;13.70;;;7.40;;
59938;SDS011;45801;51.810;19.444;2024-01-30T05:58:06;15.90;;;6.90;;
59938;SDS011;45801;51.810;19.444;2024-01-30T06:00:33;11.80;;;6.10;;
59938;SDS011;45801;51.810;19.444;2024-01-30T06:02:59;11.10;;;6.40;;
59938;SDS011;45801;51.810;19.444;2024-01-30T06:05:26;12.00;;;6.50;;
59938;SDS011;45801;51.810;19.444;2024-01-30T06:07:52;12.20;;;6.20;;
59938;SDS011;45801;51.810;19.444;2024-01-30T06:10:19;11.60;;;6.20;;
59938;SDS011;45801;51.810;19.444;2024-01-30T06:12:46;12.20;;;6.10;;
59938;SDS011;45801;51.810;19.444;2024-01-30T06:15:13;12.50;;;7.00;;
59938;SDS011;45801;51.810;19.444;2024-01-30T06:17:39;15.10;;;6.70;;
59938;SDS011;45801;51.810;19.444;2024-01-30T06:20:06;13.50;;;5.90;;
59938;SDS011;45801;51.810;19.444;2024-01-30T06:22:33;12.50;;;6.50;;
59938;SDS011;45801;51.810;19.444;2024-01-30T06:25:00;12.50;;;6.00;;
59938;SDS011;45801;51.810;19.444;2024-01-30T06:27:26;13.00;;;5.70;;
59938;SDS011;45801;51.810;19.444;2024-01-30T06:29:53;10.10;;;6.10;;
59938;SDS011;45801;51.810;19.444;2024-01-30T06:32:20;12.40;;;6.50;;
59938;SDS011;45801;51.810;19.444;2024-01-30T06:34:46;11.60;;;6.30;;
59938;SDS011;45801;51.810;19.444;2024-01-30T06:37:13;12.10;;;6.50;;
59938;SDS011;45801;51.810;19.444;2024-01-30T06:39:40;14.00;;;7.00;;
59938;SDS011;45801;51.810;19.444;2024-01-30T06:42:06;13.10;;;6.90;;
59938;SDS011;45801;51.810;19.444;2024-01-30T06:44:33;16.40;;;7.40;;
59938;SDS011;45801;51.810;19.444;2024-01-30T06:47:00;12.90;;;7.00;;
59938;SDS011;45801;51.810;19.444;2024-01-30T06:49:27;12.50;;;7.00;;
59938;SDS011;45801;51.810;19.444;2024-01-30T06:51:53;14.70;;;7.10;;
59938;SDS011;45801;51.810;19.444;2024-01-30T06:54:20;11.90;;;6.60;;
59938;SDS011;45801;51.810;19.444;2024-01-30T06:56:46;13.40;;;6.30;;
59938;SDS011;45801;51.810;19.444;2024-01-30T06:59:13;14.00;;;7.10;;
59938;SDS011;45801;51.810;19.444;2024-01-30T07:01:39;14.10;;;7.50;;
59938;SDS011;45801;51.810;19.444;2024-01-30T07:04:07;16.60;;;8.90;;
59938;SDS011;45801;51.810;19.444;2024-01-30T07:06:34;15.40;;;8.30;;
59938;SDS011;45801;51.810;19.444;2024-01-30T07:09:00;15.60;;;8.60;;
59938;SDS011;45801;51.810;19.444;2024-01-30T07:11:27;15.70;;;8.60;;
59938;SDS011;45801;51.810;19.444;2024-01-30T07:13:55;14.80;;;7.70;;
59938;SDS011;45801;51.810;19.444;2024-01-30T07:16:22;13.90;;;8.10;;
59938;SDS011;45801;51.810;19.444;2024-01-30T07:18:50;14.60;;;8.10;;
59938;SDS011;45801;51.810;19.444;2024-01-30T07:21:17;17.90;;;9.40;;
59938;SDS011;45801;51.810;19.444;2024-01-30T07:23:44;18.30;;;9.00;;
59938;SDS011;45801;51.810;19.444;2024-01-30T07:26:10;14.40;;;7.70;;
59938;SDS011;45801;51.810;19.444;2024-01-30T07:28:37;14.70;;;7.90;;
59938;SDS011;45801;51.810;19.444;2024-01-30T07:31:04;14.60;;;7.20;;
59938;SDS011;45801;51.810;19.444;2024-01-30T07:33:32;15.70;;;8.60;;
59938;SDS011;45801;51.810;19.444;2024-01-30T07:35:59;17.60;;;8.00;;
59938;SDS011;45801;51.810;19.444;2024-01-30T07:38:26;17.80;;;8.60;;
59938;SDS011;45801;51.810;19.444;2024-01-30T07:40:53;15.20;;;9.40;;
59938;SDS011;45801;51.810;19.444;2024-01-30T07:43:19;16.10;;;8.20;;
59938;SDS011;45801;51.810;19.444;2024-01-30T07:45:46;17.30;;;9.40;;
59938;SDS011;45801;51.810;19.444;2024-01-30T07:48:13;17.00;;;9.00;;
59938;SDS011;45801;51.810;19.444;2024-01-30T07:50:40;14.30;;;8.20;;
59938;SDS011;45801;51.810;19.444;2024-01-30T07:53:06;18.40;;;8.50;;
59938;SDS011;45801;51.810;19.444;2024-01-30T07:55:33;17.50;;;8.70;;
59938;SDS011;45801;51.810;19.444;2024-01-30T07:57:59;18.00;;;9.00;;
59938;SDS011;45801;51.810;19.444;2024-01-30T08:00:26;15.30;;;8.70;;
59938;SDS011;45801;51.810;19.444;2024-01-30T08:02:55;16.70;;;8.70;;
59938;SDS011;45801;51.810;19.444;2024-01-30T08:05:22;14.90;;;8.70;;
59938;SDS011;45801;51.810;19.444;2024-01-30T08:07:49;16.60;;;10.00;;
59938;SDS011;45801;51.810;19.444;2024-01-30T08:10:16;14.50;;;7.60;;
59938;SDS011;45801;51.810;19.444;2024-01-30T08:12:45;17.20;;;8.60;;
59938;SDS011;45801;51.810;19.444;2024-01-30T08:15:11;17.70;;;9.70;;
59938;SDS011;45801;51.810;19.444;2024-01-30T08:17:39;17.00;;;8.50;;
59938;SDS011;45801;51.810;19.444;2024-01-30T08:20:06;13.60;;;8.50;;
59938;SDS011;45801;51.810;19.444;2024-01-30T08:22:34;15.40;;;9.20;;
59938;SDS011;45801;51.810;19.444;2024-01-30T08:25:01;10.60;;;4.70;;
59938;SDS011;45801;51.810;19.444;2024-01-30T08:27:27;14.10;;;8.00;;
59938;SDS011;45801;51.810;19.444;2024-01-30T08:29:54;17.50;;;8.40;;
59938;SDS011;45801;51.810;19.444;2024-01-30T08:32:21;15.10;;;8.70;;
59938;SDS011;45801;51.810;19.444;2024-01-30T08:34:47;15.80;;;8.70;;
59938;SDS011;45801;51.810;19.444;2024-01-30T08:37:14;14.90;;;7.90;;
59938;SDS011;45801;51.810;19.444;2024-01-30T08:39:43;15.50;;;8.10;;
59938;SDS011;45801;51.810;19.444;2024-01-30T08:42:10;19.90;;;10.50;;
59938;SDS011;45801;51.810;19.444;2024-01-30T08:44:37;18.10;;;9.70;;
59938;SDS011;45801;51.810;19.444;2024-01-30T08:47:04;17.00;;;9.20;;
59938;SDS011;45801;51.810;19.444;2024-01-30T08:49:32;17.30;;;10.10;;
59938;SDS011;45801;51.810;19.444;2024-01-30T08:51:58;14.50;;;8.10;;
59938;SDS011;45801;51.810;19.444;2024-01-30T08:54:25;16.40;;;8.90;;
59938;SDS011;45801;51.810;19.444;2024-01-30T08:56:52;15.10;;;8.20;;
59938;SDS011;45801;51.810;19.444;2024-01-30T08:59:19;13.30;;;7.50;;
59938;SDS011;45801;51.810;19.444;2024-01-30T09:01:46;14.50;;;7.50;;
59938;SDS011;45801;51.810;19.444;2024-01-30T09:04:13;14.20;;;7.80;;
59938;SDS011;45801;51.810;19.444;2024-01-30T09:06:39;14.80;;;8.00;;
59938;SDS011;45801;51.810;19.444;2024-01-30T09:09:07;13.50;;;8.10;;
59938;SDS011;45801;51.810;19.444;2024-01-30T09:11:34;14.20;;;7.70;;
59938;SDS011;45801;51.810;19.444;2024-01-30T09:14:02;15.10;;;7.80;;
59938;SDS011;45801;51.810;19.444;2024-01-30T09:16:28;13.90;;;7.90;;
59938;SDS011;45801;51.810;19.444;2024-01-30T09:18:55;16.30;;;8.60;;
59938;SDS011;45801;51.810;19.444;2024-01-30T09:21:21;15.60;;;8.50;;
59938;SDS011;45801;51.810;19.444;2024-01-30T09:23:48;16.50;;;8.70;;
59938;SDS011;45801;51.810;19.444;2024-01-30T09:26:14;15.20;;;8.20;;
59938;SDS011;45801;51.810;19.444;2024-01-30T09:28:41;16.10;;;8.70;;
59938;SDS011;45801;51.810;19.444;2024-01-30T09:31:12;15.10;;;8.10;;
59938;SDS011;45801;51.810;19.444;2024-01-30T09:33:38;17.60;;;9.50;;
59938;SDS011;45801;51.810;19.444;2024-01-30T09:36:05;14.50;;;7.90;;
59938;SDS011;45801;51.810;19.444;2024-01-30T09:38:32;17.60;;;9.00;;
59938;SDS011;45801;51.810;19.444;2024-01-30T09:40:59;18.90;;;9.10;;
59938;SDS011;45801;51.810;19.444;2024-01-30T09:43:31;15.50;;;8.40;;
59938;SDS011;45801;51.810;19.444;2024-01-30T09:46:01;16.60;;;8.40;;
59938;SDS011;45801;51.810;19.444;2024-01-30T09:48:36;17.50;;;9.00;;
59938;SDS011;45801;51.810;19.444;2024-01-30T09:51:03;16.10;;;8.80;;
59938;SDS011;45801;51.810;19.444;2024-01-30T09:53:30;16.60;;;9.40;;
59938;SDS011;45801;51.810;19.444;2024-01-30T09:55:59;14.90;;;8.00;;
59938;SDS011;45801;51.810;19.444;2024-01-30T09:58:28;16.40;;;9.20;;
59938;SDS011;45801;51.810;19.444;2024-01-30T10:00:54;18.50;;;9.40;;
59938;SDS011;45801;51.810;19.444;2024-01-30T10:03:21;13.90;;;8.30;;
59938;SDS011;45801;51.810;19.444;2024-01-30T10:05:51;18.00;;;8.90;;
59938;SDS011;45801;51.810;19.444;2024-01-30T10:08:21;14.30;;;8.50;;
59938;SDS011;45801;51.810;19.444;2024-01-30T10:10:47;17.00;;;8.60;;
59938;SDS011;45801;51.810;19.444;2024-01-30T10:13:16;15.30;;;8.50;;
59938;SDS011;45801;51.810;19.444;2024-01-30T10:15:43;19.50;;;9.90;;
59938;SDS011;45801;51.810;19.444;2024-01-30T10:18:10;16.50;;;9.10;;
59938;SDS011;45801;51.810;19.444;2024-01-30T10:20:37;16.50;;;8.80;;
59938;SDS011;45801;51.810;19.444;2024-01-30T10:23:04;17.80;;;9.80;;
59938;SDS011;45801;51.810;19.444;2024-01-30T10:25:30;16.80;;;9.10;;
59938;SDS011;45801;51.810;19.444;2024-01-30T10:27:58;17.30;;;8.30;;
59938;SDS011;45801;51.810;19.444;2024-01-30T10:30:26;17.30;;;9.20;;
59938;SDS011;45801;51.810;19.444;2024-01-30T10:32:54;20.10;;;8.90;;
59938;SDS011;45801;51.810;19.444;2024-01-30T10:35:20;15.40;;;8.50;;
59938;SDS011;45801;51.810;19.444;2024-01-30T10:37:47;17.30;;;8.80;;
59938;SDS011;45801;51.810;19.444;2024-01-30T10:40:15;16.30;;;8.80;;
59938;SDS011;45801;51.810;19.444;2024-01-30T10:42:43;17.00;;;8.20;;
59938;SDS011;45801;51.810;19.444;2024-01-30T10:45:11;16.40;;;8.00;;
59938;SDS011;45801;51.810;19.444;2024-01-30T10:47:40;18.40;;;8.70;;
59938;SDS011;45801;51.810;19.444;2024-01-30T10:50:10;15.70;;;8.60;;
59938;SDS011;45801;51.810;19.444;2024-01-30T10:52:37;17.20;;;9.20;;
59938;SDS011;45801;51.810;19.444;2024-01-30T10:55:05;14.90;;;8.30;;
59938;SDS011;45801;51.810;19.444;2024-01-30T10:57:34;14.60;;;8.00;;
59938;SDS011;45801;51.810;19.444;2024-01-30T11:00:09;17.40;;;8.50;;
59938;SDS011;45801;51.810;19.444;2024-01-30T11:02:44;17.20;;;8.10;;
59938;SDS011;45801;51.810;19.444;2024-01-30T11:05:12;17.10;;;8.90;;
59938;SDS011;45801;51.810;19.444;2024-01-30T11:07:39;16.10;;;8.70;;
59938;SDS011;45801;51.810;19.444;2024-01-30T11:10:07;17.70;;;9.40;;
59938;SDS011;45801;51.810;19.444;2024-01-30T11:12:39;15.30;;;8.10;;
59938;SDS011;45801;51.810;19.444;2024-01-30T11:15:17;15.80;;;8.60;;
59938;SDS011;45801;51.810;19.444;2024-01-30T11:17:45;17.10;;;8.60;;
59938;SDS011;45801;51.810;19.444;2024-01-30T11:20:29;13.20;;;7.80;;
59938;SDS011;45801;51.810;19.444;2024-01-30T11:23:02;14.50;;;6.90;;
59938;SDS011;45801;51.810;19.444;2024-01-30T11:25:32;13.10;;;7.60;;
59938;SDS011;45801;51.810;19.444;2024-01-30T11:27:59;13.70;;;7.40;;
59938;SDS011;45801;51.810;19.444;2024-01-30T11:30:30;15.50;;;7.40;;
59938;SDS011;45801;51.810;19.444;2024-01-30T11:32:58;13.90;;;6.90;;
59938;SDS011;45801;51.810;19.444;2024-01-30T11:35:32;12.70;;;7.30;;
59938;SDS011;45801;51.810;19.444;2024-01-30T11:38:00;14.00;;;7.90;;
59938;SDS011;45801;51.810;19.444;2024-01-30T11:40:28;14.90;;;7.90;;
59938;SDS011;45801;51.810;19.444;2024-01-30T11:42:56;15.70;;;7.90;;
59938;SDS011;45801;51.810;19.444;2024-01-30T11:45:24;13.40;;;6.70;;
59938;SDS011;45801;51.810;19.444;2024-01-30T11:47:51;12.70;;;6.20;;
59938;SDS011;45801;51.810;19.444;2024-01-30T11:50:18;13.80;;;7.20;;
59938;SDS011;45801;51.810;19.444;2024-01-30T11:52:46;15.70;;;7.80;;
59938;SDS011;45801;51.810;19.444;2024-01-30T11:55:14;14.40;;;7.10;;
59938;SDS011;45801;51.810;19.444;2024-01-30T11:57:41;14.00;;;7.00;;
59938;SDS011;45801;51.810;19.444;2024-01-30T12:00:17;12.90;;;7.50;;
59938;SDS011;45801;51.810;19.444;2024-01-30T12:02:51;15.30;;;7.70;;
59938;SDS011;45801;51.810;19.444;2024-01-30T12:05:23;15.20;;;8.10;;
59938;SDS011;45801;51.810;19.444;2024-01-30T12:07:50;10.30;;;4.00;;
59938;SDS011;45801;51.810;19.444;2024-01-30T12:10:17;15.50;;;8.50;;
59938;SDS011;45801;51.810;19.444;2024-01-30T12:12:47;15.60;;;8.20;;
59938;SDS011;45801;51.810;19.444;2024-01-30T12:15:16;14.50;;;8.00;;
59938;SDS011;45801;51.810;19.444;2024-01-30T12:17:44;15.50;;;8.50;;
59938;SDS011;45801;51.810;19.444;2024-01-30T12:20:13;15.30;;;8.20;;
59938;SDS011;45801;51.810;19.444;2024-01-30T12:22:41;14.80;;;7.30;;
59938;SDS011;45801;51.810;19.444;2024-01-30T12:25:10;16.10;;;8.70;;
59938;SDS011;45801;51.810;19.444;2024-01-30T12:27:38;14.40;;;8.20;;
59938;SDS011;45801;51.810;19.444;2024-01-30T12:30:06;15.70;;;8.60;;
59938;SDS011;45801;51.810;19.444;2024-01-30T12:32:39;14.60;;;8.60;;
59938;SDS011;45801;51.810;19.444;2024-01-30T12:35:09;13.10;;;6.80;;
59938;SDS011;45801;51.810;19.444;2024-01-30T12:37:41;14.50;;;8.00;;
59938;SDS011;45801;51.810;19.444;2024-01-30T12:40:09;13.60;;;7.90;;
59938;SDS011;45801;51.810;19.444;2024-01-30T12:42:36;18.20;;;8.30;;
59938;SDS011;45801;51.810;19.444;2024-01-30T12:45:03;14.40;;;7.40;;
59938;SDS011;45801;51.810;19.444;2024-01-30T12:47:30;14.50;;;7.90;;
59938;SDS011;45801;51.810;19.444;2024-01-30T12:49:58;15.50;;;8.10;;
59938;SDS011;45801;51.810;19.444;2024-01-30T12:52:25;13.60;;;8.30;;
59938;SDS011;45801;51.810;19.444;2024-01-30T12:54:52;15.00;;;7.80;;
59938;SDS011;45801;51.810;19.444;2024-01-30T12:57:19;17.10;;;8.00;;
59938;SDS011;45801;51.810;19.444;2024-01-30T12:59:45;14.50;;;9.30;;
59938;SDS011;45801;51.810;19.444;2024-01-30T13:02:13;14.80;;;8.50;;
59938;SDS011;45801;51.810;19.444;2024-01-30T13:04:40;15.10;;;8.00;;
59938;SDS011;45801;51.810;19.444;2024-01-30T13:07:08;15.40;;;8.70;;
59938;SDS011;45801;51.810;19.444;2024-01-30T13:09:35;16.90;;;8.50;;
59938;SDS011;45801;51.810;19.444;2024-01-30T13:12:01;14.80;;;9.00;;
59938;SDS011;45801;51.810;19.444;2024-01-30T13:14:28;15.00;;;7.60;;
59938;SDS011;45801;51.810;19.444;2024-01-30T13:16:55;15.40;;;7.80;;
59938;SDS011;45801;51.810;19.444;2024-01-30T13:19:21;12.10;;;6.30;;
59938;SDS011;45801;51.810;19.444;2024-01-30T13:21:48;13.90;;;7.90;;
59938;SDS011;45801;51.810;19.444;2024-01-30T13:24:15;13.80;;;7.40;;
59938;SDS011;45801;51.810;19.444;2024-01-30T13:26:42;13.60;;;7.20;;
59938;SDS011;45801;51.810;19.444;2024-01-30T13:29:08;12.10;;;7.20;;
59938;SDS011;45801;51.810;19.444;2024-01-30T13:31:36;12.60;;;6.70;;
59938;SDS011;45801;51.810;19.444;2024-01-30T13:34:03;15.00;;;7.50;;
59938;SDS011;45801;51.810;19.444;2024-01-30T13:36:29;14.50;;;7.80;;
59938;SDS011;45801;51.810;19.444;2024-01-30T13:38:56;14.60;;;7.80;;
59938;SDS011;45801;51.810;19.444;2024-01-30T13:41:22;13.50;;;7.50;;
59938;SDS011;45801;51.810;19.444;2024-01-30T13:43:49;11.70;;;6.70;;
59938;SDS011;45801;51.810;19.444;2024-01-30T13:46:15;15.00;;;7.70;;
59938;SDS011;45801;51.810;19.444;2024-01-30T13:48:42;13.10;;;7.30;;
59938;SDS011;45801;51.810;19.444;2024-01-30T13:51:10;15.00;;;7.90;;
59938;SDS011;45801;51.810;19.444;2024-01-30T13:53:37;15.60;;;7.80;;
59938;SDS011;45801;51.810;19.444;2024-01-30T13:56:03;13.60;;;8.40;;
59938;SDS011;45801;51.810;19.444;2024-01-30T13:58:31;14.50;;;8.00;;
59938;SDS011;45801;51.810;19.444;2024-01-30T14:00:59;14.90;;;7.30;;
59938;SDS011;45801;51.810;19.444;2024-01-30T14:03:26;12.90;;;7.30;;
59938;SDS011;45801;51.810;19.444;2024-01-30T14:05:52;14.30;;;7.60;;
59938;SDS011;45801;51.810;19.444;2024-01-30T14:08:19;14.30;;;7.40;;
59938;SDS011;45801;51.810;19.444;2024-01-30T14:10:48;14.80;;;7.30;;
59938;SDS011;45801;51.810;19.444;2024-01-30T14:13:14;15.40;;;7.70;;
59938;SDS011;45801;51.810;19.444;2024-01-30T14:15:41;13.60;;;6.90;;
59938;SDS011;45801;51.810;19.444;2024-01-30T14:18:07;13.60;;;7.60;;
59938;SDS011;45801;51.810;19.444;2024-01-30T14:20:35;11.10;;;6.90;;
59938;SDS011;45801;51.810;19.444;2024-01-30T14:23:01;16.30;;;7.10;;